sensor_id;sensor_type;location;lat;lon;timestamp;temperature;humidity
58582;DHT22;44361;51.476;5.700;2023-07-31T00:01:04;16.30;99.90
58582;DHT22;44361;51.476;5.700;2023-07-31T00:03:30;16.30;99.90
58582;DHT22;44361;51.476;5.700;2023-07-31T00:05:55;16.30;99.90
58582;DHT22;44361;51.476;5.700;2023-07-31T00:08:21;16.30;99.90
58582;DHT22;44361;51.476;5.700;2023-07-31T00:10:47;16.30;99.90
58582;DHT22;44361;51.476;5.700;2023-07-31T00:13:16;16.30;99.90
58582;DHT22;44361;51.476;5.700;2023-07-31T00:15:41;16.20;99.90
58582;DHT22;44361;51.476;5.700;2023-07-31T00:18:07;16.30;99.90
58582;DHT22;44361;51.476;5.700;2023-07-31T00:20:32;16.30;99.90
58582;DHT22;44361;51.476;5.700;2023-07-31T00:22:58;16.30;99.90
58582;DHT22;44361;51.476;5.700;2023-07-31T00:25:23;16.30;99.90
58582;DHT22;44361;51.476;5.700;2023-07-31T00:27:49;16.30;99.90
58582;DHT22;44361;51.476;5.700;2023-07-31T00:30:14;16.30;99.90
58582;DHT22;44361;51.476;5.700;2023-07-31T00:32:40;16.30;99.90
58582;DHT22;44361;51.476;5.700;2023-07-31T00:35:06;16.30;99.90
58582;DHT22;44361;51.476;5.700;2023-07-31T00:37:31;16.30;99.90
58582;DHT22;44361;51.476;5.700;2023-07-31T00:39:57;16.20;99.90
58582;DHT22;44361;51.476;5.700;2023-07-31T00:42:23;16.20;99.90
58582;DHT22;44361;51.476;5.700;2023-07-31T00:44:48;16.30;99.90
58582;DHT22;44361;51.476;5.700;2023-07-31T00:47:14;16.30;99.90
58582;DHT22;44361;51.476;5.700;2023-07-31T00:49:39;16.30;99.90
58582;DHT22;44361;51.476;5.700;2023-07-31T00:52:05;16.20;99.90
58582;DHT22;44361;51.476;5.700;2023-07-31T00:54:31;16.20;99.90
58582;DHT22;44361;51.476;5.700;2023-07-31T00:56:57;16.30;99.90
58582;DHT22;44361;51.476;5.700;2023-07-31T00:59:23;16.30;99.90
58582;DHT22;44361;51.476;5.700;2023-07-31T01:01:49;16.30;99.90
58582;DHT22;44361;51.476;5.700;2023-07-31T01:04:15;16.30;99.90
58582;DHT22;44361;51.476;5.700;2023-07-31T01:07:07;16.30;99.90
58582;DHT22;44361;51.476;5.700;2023-07-31T01:09:49;16.30;99.90
58582;DHT22;44361;51.476;5.700;2023-07-31T01:12:20;16.30;99.90
58582;DHT22;44361;51.476;5.700;2023-07-31T01:17:30;16.30;99.90
58582;DHT22;44361;51.476;5.700;2023-07-31T01:19:59;16.30;99.90
58582;DHT22;44361;51.476;5.700;2023-07-31T01:27:42;16.30;99.90
58582;DHT22;44361;51.476;5.700;2023-07-31T01:30:12;16.20;99.90
58582;DHT22;44361;51.476;5.700;2023-07-31T01:32:43;16.20;99.90
58582;DHT22;44361;51.476;5.700;2023-07-31T01:35:09;16.20;99.90
58582;DHT22;44361;51.476;5.700;2023-07-31T01:37:35;16.20;99.90
58582;DHT22;44361;51.476;5.700;2023-07-31T01:40:01;16.20;99.90
58582;DHT22;44361;51.476;5.700;2023-07-31T01:42:26;16.20;99.90
58582;DHT22;44361;51.476;5.700;2023-07-31T01:44:52;16.20;99.90
58582;DHT22;44361;51.476;5.700;2023-07-31T01:47:17;16.20;99.90
58582;DHT22;44361;51.476;5.700;2023-07-31T01:49:43;16.20;99.90
58582;DHT22;44361;51.476;5.700;2023-07-31T01:52:08;16.20;99.90
58582;DHT22;44361;51.476;5.700;2023-07-31T01:54:34;16.20;99.90
58582;DHT22;44361;51.476;5.700;2023-07-31T01:56:59;16.20;99.90
58582;DHT22;44361;51.476;5.700;2023-07-31T01:59:25;16.20;99.90
58582;DHT22;44361;51.476;5.700;2023-07-31T02:01:50;16.20;99.90
58582;DHT22;44361;51.476;5.700;2023-07-31T02:04:16;16.10;99.90
58582;DHT22;44361;51.476;5.700;2023-07-31T02:06:41;16.10;99.90
58582;DHT22;44361;51.476;5.700;2023-07-31T02:09:07;16.10;99.90
58582;DHT22;44361;51.476;5.700;2023-07-31T02:11:32;16.10;99.90
58582;DHT22;44361;51.476;5.700;2023-07-31T02:13:58;16.10;99.90
58582;DHT22;44361;51.476;5.700;2023-07-31T02:16:23;16.00;99.90
58582;DHT22;44361;51.476;5.700;2023-07-31T02:18:49;16.00;99.90
58582;DHT22;44361;51.476;5.700;2023-07-31T02:21:14;16.00;99.90
58582;DHT22;44361;51.476;5.700;2023-07-31T02:23:40;15.90;99.90
58582;DHT22;44361;51.476;5.700;2023-07-31T02:26:05;16.00;99.90
58582;DHT22;44361;51.476;5.700;2023-07-31T02:28:31;16.00;99.90
58582;DHT22;44361;51.476;5.700;2023-07-31T02:30:56;15.90;99.90
58582;DHT22;44361;51.476;5.700;2023-07-31T02:33:22;16.00;99.90
58582;DHT22;44361;51.476;5.700;2023-07-31T02:35:47;15.90;99.90
58582;DHT22;44361;51.476;5.700;2023-07-31T02:38:13;15.90;99.90
58582;DHT22;44361;51.476;5.700;2023-07-31T02:40:40;15.90;99.90
58582;DHT22;44361;51.476;5.700;2023-07-31T02:43:07;15.90;99.90
58582;DHT22;44361;51.476;5.700;2023-07-31T02:45:32;15.90;99.90
58582;DHT22;44361;51.476;5.700;2023-07-31T02:47:58;15.90;99.90
58582;DHT22;44361;51.476;5.700;2023-07-31T02:50:23;15.90;99.90
58582;DHT22;44361;51.476;5.700;2023-07-31T02:52:49;15.90;99.90
58582;DHT22;44361;51.476;5.700;2023-07-31T02:55:14;16.00;99.90
58582;DHT22;44361;51.476;5.700;2023-07-31T02:57:40;15.90;99.90
58582;DHT22;44361;51.476;5.700;2023-07-31T03:00:06;15.90;99.90
58582;DHT22;44361;51.476;5.700;2023-07-31T03:02:32;16.00;99.90
58582;DHT22;44361;51.476;5.700;2023-07-31T03:04:57;15.90;99.90
58582;DHT22;44361;51.476;5.700;2023-07-31T03:07:23;16.00;99.90
58582;DHT22;44361;51.476;5.700;2023-07-31T03:09:49;16.00;99.90
58582;DHT22;44361;51.476;5.700;2023-07-31T03:12:14;16.00;99.90
58582;DHT22;44361;51.476;5.700;2023-07-31T03:14:40;16.00;99.90
58582;DHT22;44361;51.476;5.700;2023-07-31T03:17:06;16.00;99.90
58582;DHT22;44361;51.476;5.700;2023-07-31T03:19:32;16.00;99.90
58582;DHT22;44361;51.476;5.700;2023-07-31T03:21:58;16.00;99.90
58582;DHT22;44361;51.476;5.700;2023-07-31T03:24:24;16.10;99.90
58582;DHT22;44361;51.476;5.700;2023-07-31T03:26:49;16.10;99.90
58582;DHT22;44361;51.476;5.700;2023-07-31T03:29:15;16.10;99.90
58582;DHT22;44361;51.476;5.700;2023-07-31T03:31:40;16.10;99.90
58582;DHT22;44361;51.476;5.700;2023-07-31T03:34:06;16.10;99.90
58582;DHT22;44361;51.476;5.700;2023-07-31T03:36:31;16.10;99.90
58582;DHT22;44361;51.476;5.700;2023-07-31T03:38:57;16.10;99.90
58582;DHT22;44361;51.476;5.700;2023-07-31T03:41:22;16.10;99.90
58582;DHT22;44361;51.476;5.700;2023-07-31T03:43:50;16.20;99.90
58582;DHT22;44361;51.476;5.700;2023-07-31T03:46:17;16.20;99.90
58582;DHT22;44361;51.476;5.700;2023-07-31T03:48:43;16.20;99.90
58582;DHT22;44361;51.476;5.700;2023-07-31T03:51:08;16.20;99.90
58582;DHT22;44361;51.476;5.700;2023-07-31T03:53:34;16.20;99.90
58582;DHT22;44361;51.476;5.700;2023-07-31T03:55:59;16.20;99.90
58582;DHT22;44361;51.476;5.700;2023-07-31T03:58:25;16.20;99.90
58582;DHT22;44361;51.476;5.700;2023-07-31T04:00:50;16.30;99.90
58582;DHT22;44361;51.476;5.700;2023-07-31T04:03:16;16.20;99.90
58582;DHT22;44361;51.476;5.700;2023-07-31T04:05:42;16.30;99.90
58582;DHT22;44361;51.476;5.700;2023-07-31T04:08:07;16.30;99.90
58582;DHT22;44361;51.476;5.700;2023-07-31T04:10:33;16.20;99.90
58582;DHT22;44361;51.476;5.700;2023-07-31T04:12:59;16.20;99.90
58582;DHT22;44361;51.476;5.700;2023-07-31T04:15:26;16.30;99.90
58582;DHT22;44361;51.476;5.700;2023-07-31T04:17:51;16.30;99.90
58582;DHT22;44361;51.476;5.700;2023-07-31T04:20:17;16.30;99.90
58582;DHT22;44361;51.476;5.700;2023-07-31T04:22:43;16.30;99.90
58582;DHT22;44361;51.476;5.700;2023-07-31T04:25:08;16.30;99.90
58582;DHT22;44361;51.476;5.700;2023-07-31T04:27:34;16.40;99.90
58582;DHT22;44361;51.476;5.700;2023-07-31T04:29:59;16.40;99.90
58582;DHT22;44361;51.476;5.700;2023-07-31T04:32:25;16.50;99.90
58582;DHT22;44361;51.476;5.700;2023-07-31T04:34:50;16.50;99.90
58582;DHT22;44361;51.476;5.700;2023-07-31T04:37:16;16.60;99.90
58582;DHT22;44361;51.476;5.700;2023-07-31T04:39:42;16.50;99.90
58582;DHT22;44361;51.476;5.700;2023-07-31T04:42:07;16.60;99.90
58582;DHT22;44361;51.476;5.700;2023-07-31T04:44:33;16.60;99.90
58582;DHT22;44361;51.476;5.700;2023-07-31T04:46:58;16.60;99.90
58582;DHT22;44361;51.476;5.700;2023-07-31T04:49:24;16.70;99.90
58582;DHT22;44361;51.476;5.700;2023-07-31T04:51:49;16.70;99.90
58582;DHT22;44361;51.476;5.700;2023-07-31T04:54:15;16.70;99.90
58582;DHT22;44361;51.476;5.700;2023-07-31T04:56:41;16.70;99.90
58582;DHT22;44361;51.476;5.700;2023-07-31T04:59:06;16.70;99.90
58582;DHT22;44361;51.476;5.700;2023-07-31T05:01:32;16.70;99.90
58582;DHT22;44361;51.476;5.700;2023-07-31T05:03:58;16.70;99.90
58582;DHT22;44361;51.476;5.700;2023-07-31T05:06:23;16.70;99.90
58582;DHT22;44361;51.476;5.700;2023-07-31T05:08:49;16.80;99.90
58582;DHT22;44361;51.476;5.700;2023-07-31T05:11:14;16.80;99.90
58582;DHT22;44361;51.476;5.700;2023-07-31T05:13:40;16.80;99.90
58582;DHT22;44361;51.476;5.700;2023-07-31T05:16:05;16.80;99.90
58582;DHT22;44361;51.476;5.700;2023-07-31T05:18:31;16.90;99.90
58582;DHT22;44361;51.476;5.700;2023-07-31T05:20:56;16.80;99.90
58582;DHT22;44361;51.476;5.700;2023-07-31T05:23:22;16.80;99.90
58582;DHT22;44361;51.476;5.700;2023-07-31T05:25:47;16.70;99.90
58582;DHT22;44361;51.476;5.700;2023-07-31T05:28:13;16.70;99.90
58582;DHT22;44361;51.476;5.700;2023-07-31T05:30:38;16.60;99.90
58582;DHT22;44361;51.476;5.700;2023-07-31T05:33:04;16.50;99.90
58582;DHT22;44361;51.476;5.700;2023-07-31T05:35:30;16.50;99.90
58582;DHT22;44361;51.476;5.700;2023-07-31T05:37:55;16.40;99.90
58582;DHT22;44361;51.476;5.700;2023-07-31T05:40:21;16.40;99.90
58582;DHT22;44361;51.476;5.700;2023-07-31T05:42:46;16.40;99.90
58582;DHT22;44361;51.476;5.700;2023-07-31T05:45:12;16.40;99.90
58582;DHT22;44361;51.476;5.700;2023-07-31T05:47:39;16.40;99.90
58582;DHT22;44361;51.476;5.700;2023-07-31T05:50:04;16.40;99.90
58582;DHT22;44361;51.476;5.700;2023-07-31T05:52:30;16.40;99.90
58582;DHT22;44361;51.476;5.700;2023-07-31T05:54:56;16.40;99.90
58582;DHT22;44361;51.476;5.700;2023-07-31T05:57:21;16.40;99.90
58582;DHT22;44361;51.476;5.700;2023-07-31T05:59:47;16.40;99.90
58582;DHT22;44361;51.476;5.700;2023-07-31T06:02:12;16.40;99.90
58582;DHT22;44361;51.476;5.700;2023-07-31T06:04:38;16.40;99.90
58582;DHT22;44361;51.476;5.700;2023-07-31T06:07:04;16.40;99.90
58582;DHT22;44361;51.476;5.700;2023-07-31T06:09:29;16.40;99.90
58582;DHT22;44361;51.476;5.700;2023-07-31T06:11:55;16.30;99.90
58582;DHT22;44361;51.476;5.700;2023-07-31T06:14:20;16.30;99.90
58582;DHT22;44361;51.476;5.700;2023-07-31T06:16:46;16.30;99.90
58582;DHT22;44361;51.476;5.700;2023-07-31T06:19:11;16.30;99.90
58582;DHT22;44361;51.476;5.700;2023-07-31T06:21:38;16.30;99.90
58582;DHT22;44361;51.476;5.700;2023-07-31T06:24:07;16.30;99.90
58582;DHT22;44361;51.476;5.700;2023-07-31T06:26:32;16.30;99.90
58582;DHT22;44361;51.476;5.700;2023-07-31T06:28:58;16.30;99.90
58582;DHT22;44361;51.476;5.700;2023-07-31T06:31:24;16.30;99.90
58582;DHT22;44361;51.476;5.700;2023-07-31T06:33:51;16.30;99.90
58582;DHT22;44361;51.476;5.700;2023-07-31T06:36:16;16.30;99.90
58582;DHT22;44361;51.476;5.700;2023-07-31T06:38:42;16.30;99.90
58582;DHT22;44361;51.476;5.700;2023-07-31T06:41:07;16.30;99.90
58582;DHT22;44361;51.476;5.700;2023-07-31T06:43:33;16.30;99.90
58582;DHT22;44361;51.476;5.700;2023-07-31T06:46:06;16.30;99.90
58582;DHT22;44361;51.476;5.700;2023-07-31T06:48:33;16.30;99.90
58582;DHT22;44361;51.476;5.700;2023-07-31T06:50:58;16.40;99.90
58582;DHT22;44361;51.476;5.700;2023-07-31T06:53:24;16.40;99.90
58582;DHT22;44361;51.476;5.700;2023-07-31T06:55:49;16.50;99.90
58582;DHT22;44361;51.476;5.700;2023-07-31T06:58:17;16.50;99.90
58582;DHT22;44361;51.476;5.700;2023-07-31T07:00:42;16.50;99.90
58582;DHT22;44361;51.476;5.700;2023-07-31T07:03:08;16.50;99.90
58582;DHT22;44361;51.476;5.700;2023-07-31T07:05:33;16.50;99.90
58582;DHT22;44361;51.476;5.700;2023-07-31T07:07:59;16.50;99.90
58582;DHT22;44361;51.476;5.700;2023-07-31T07:10:25;16.50;99.90
58582;DHT22;44361;51.476;5.700;2023-07-31T07:12:51;16.50;99.90
58582;DHT22;44361;51.476;5.700;2023-07-31T07:15:16;16.50;99.90
58582;DHT22;44361;51.476;5.700;2023-07-31T07:17:42;16.50;99.90
58582;DHT22;44361;51.476;5.700;2023-07-31T07:20:09;16.50;99.90
58582;DHT22;44361;51.476;5.700;2023-07-31T07:22:34;16.60;99.90
58582;DHT22;44361;51.476;5.700;2023-07-31T07:25:00;16.70;99.90
58582;DHT22;44361;51.476;5.700;2023-07-31T07:27:25;16.70;99.90
58582;DHT22;44361;51.476;5.700;2023-07-31T07:29:51;16.80;99.90
58582;DHT22;44361;51.476;5.700;2023-07-31T07:32:20;16.90;99.90
58582;DHT22;44361;51.476;5.700;2023-07-31T07:34:47;16.90;99.90
58582;DHT22;44361;51.476;5.700;2023-07-31T07:37:13;16.80;99.90
58582;DHT22;44361;51.476;5.700;2023-07-31T07:39:38;16.70;99.90
58582;DHT22;44361;51.476;5.700;2023-07-31T07:42:04;16.70;99.90
58582;DHT22;44361;51.476;5.700;2023-07-31T07:44:29;16.80;99.90
58582;DHT22;44361;51.476;5.700;2023-07-31T07:46:55;16.80;99.90
58582;DHT22;44361;51.476;5.700;2023-07-31T07:49:20;16.90;99.90
58582;DHT22;44361;51.476;5.700;2023-07-31T07:51:48;16.80;99.90
58582;DHT22;44361;51.476;5.700;2023-07-31T07:54:14;16.70;99.90
58582;DHT22;44361;51.476;5.700;2023-07-31T07:56:39;16.70;99.90
58582;DHT22;44361;51.476;5.700;2023-07-31T07:59:05;16.70;99.90
58582;DHT22;44361;51.476;5.700;2023-07-31T08:01:30;16.70;99.90
58582;DHT22;44361;51.476;5.700;2023-07-31T08:03:56;16.70;99.90
58582;DHT22;44361;51.476;5.700;2023-07-31T08:06:21;16.70;99.90
58582;DHT22;44361;51.476;5.700;2023-07-31T08:08:48;16.70;99.90
58582;DHT22;44361;51.476;5.700;2023-07-31T08:11:13;16.70;99.90
58582;DHT22;44361;51.476;5.700;2023-07-31T08:13:39;16.70;99.90
58582;DHT22;44361;51.476;5.700;2023-07-31T08:16:04;16.70;99.90
58582;DHT22;44361;51.476;5.700;2023-07-31T08:18:31;16.80;99.90
58582;DHT22;44361;51.476;5.700;2023-07-31T08:20:56;16.80;99.90
58582;DHT22;44361;51.476;5.700;2023-07-31T08:23:22;16.80;99.90
58582;DHT22;44361;51.476;5.700;2023-07-31T08:25:47;16.80;99.90
58582;DHT22;44361;51.476;5.700;2023-07-31T08:28:15;16.90;99.90
58582;DHT22;44361;51.476;5.700;2023-07-31T08:30:40;17.00;99.90
58582;DHT22;44361;51.476;5.700;2023-07-31T08:33:07;17.20;99.90
58582;DHT22;44361;51.476;5.700;2023-07-31T08:35:32;17.10;99.90
58582;DHT22;44361;51.476;5.700;2023-07-31T08:37:58;17.10;99.90
58582;DHT22;44361;51.476;5.700;2023-07-31T08:40:23;17.10;99.90
58582;DHT22;44361;51.476;5.700;2023-07-31T08:42:51;17.10;99.90
58582;DHT22;44361;51.476;5.700;2023-07-31T08:45:18;17.00;99.90
58582;DHT22;44361;51.476;5.700;2023-07-31T08:47:50;17.10;99.90
58582;DHT22;44361;51.476;5.700;2023-07-31T08:50:17;17.10;99.90
58582;DHT22;44361;51.476;5.700;2023-07-31T08:52:43;17.00;99.90
58582;DHT22;44361;51.476;5.700;2023-07-31T08:55:09;17.00;99.90
58582;DHT22;44361;51.476;5.700;2023-07-31T08:57:37;17.10;99.90
58582;DHT22;44361;51.476;5.700;2023-07-31T09:00:04;17.10;99.90
58582;DHT22;44361;51.476;5.700;2023-07-31T09:03:03;17.00;99.90
58582;DHT22;44361;51.476;5.700;2023-07-31T09:05:32;16.90;99.90
58582;DHT22;44361;51.476;5.700;2023-07-31T09:07:58;16.90;99.90
58582;DHT22;44361;51.476;5.700;2023-07-31T09:10:25;16.90;99.90
58582;DHT22;44361;51.476;5.700;2023-07-31T09:12:51;17.00;99.90
58582;DHT22;44361;51.476;5.700;2023-07-31T09:15:17;17.00;99.90
58582;DHT22;44361;51.476;5.700;2023-07-31T09:17:43;17.10;99.90
58582;DHT22;44361;51.476;5.700;2023-07-31T09:20:17;17.10;99.90
58582;DHT22;44361;51.476;5.700;2023-07-31T09:22:44;17.20;99.90
58582;DHT22;44361;51.476;5.700;2023-07-31T09:25:26;17.40;99.90
58582;DHT22;44361;51.476;5.700;2023-07-31T09:27:54;17.40;99.90
58582;DHT22;44361;51.476;5.700;2023-07-31T09:30:20;17.50;99.90
58582;DHT22;44361;51.476;5.700;2023-07-31T09:32:47;17.60;99.90
58582;DHT22;44361;51.476;5.700;2023-07-31T09:37:58;17.60;99.90
58582;DHT22;44361;51.476;5.700;2023-07-31T09:40:28;17.70;99.90
58582;DHT22;44361;51.476;5.700;2023-07-31T09:42:59;17.80;99.90
58582;DHT22;44361;51.476;5.700;2023-07-31T09:45:25;18.00;99.90
58582;DHT22;44361;51.476;5.700;2023-07-31T09:47:51;18.00;99.90
58582;DHT22;44361;51.476;5.700;2023-07-31T09:50:17;18.20;99.90
58582;DHT22;44361;51.476;5.700;2023-07-31T09:52:43;18.30;99.90
58582;DHT22;44361;51.476;5.700;2023-07-31T09:55:09;18.40;99.90
58582;DHT22;44361;51.476;5.700;2023-07-31T09:57:42;18.30;99.90
58582;DHT22;44361;51.476;5.700;2023-07-31T10:00:12;18.20;99.90
58582;DHT22;44361;51.476;5.700;2023-07-31T10:02:39;18.30;99.90
58582;DHT22;44361;51.476;5.700;2023-07-31T10:05:06;18.30;99.90
58582;DHT22;44361;51.476;5.700;2023-07-31T10:07:37;18.20;99.90
58582;DHT22;44361;51.476;5.700;2023-07-31T10:10:04;18.40;99.90
58582;DHT22;44361;51.476;5.700;2023-07-31T10:12:32;18.60;99.90
58582;DHT22;44361;51.476;5.700;2023-07-31T10:14:59;18.60;99.90
58582;DHT22;44361;51.476;5.700;2023-07-31T10:17:25;18.30;99.90
58582;DHT22;44361;51.476;5.700;2023-07-31T10:19:52;18.20;99.90
58582;DHT22;44361;51.476;5.700;2023-07-31T10:22:19;18.10;99.90
58582;DHT22;44361;51.476;5.700;2023-07-31T10:24:46;18.10;99.90
58582;DHT22;44361;51.476;5.700;2023-07-31T10:27:13;18.10;99.90
58582;DHT22;44361;51.476;5.700;2023-07-31T10:29:40;18.20;99.90
58582;DHT22;44361;51.476;5.700;2023-07-31T10:32:07;18.20;99.90
58582;DHT22;44361;51.476;5.700;2023-07-31T10:34:36;18.40;99.90
58582;DHT22;44361;51.476;5.700;2023-07-31T10:39:59;18.30;99.90
58582;DHT22;44361;51.476;5.700;2023-07-31T10:42:52;18.40;99.90
58582;DHT22;44361;51.476;5.700;2023-07-31T10:45:38;18.50;99.90
58582;DHT22;44361;51.476;5.700;2023-07-31T10:48:05;18.50;99.90
58582;DHT22;44361;51.476;5.700;2023-07-31T10:50:36;18.60;99.90
58582;DHT22;44361;51.476;5.700;2023-07-31T10:53:02;18.70;99.90
58582;DHT22;44361;51.476;5.700;2023-07-31T10:55:33;18.60;99.90
58582;DHT22;44361;51.476;5.700;2023-07-31T10:58:13;18.60;99.90
58582;DHT22;44361;51.476;5.700;2023-07-31T11:00:41;18.70;99.90
58582;DHT22;44361;51.476;5.700;2023-07-31T11:08:22;19.40;99.90
58582;DHT22;44361;51.476;5.700;2023-07-31T11:10:50;19.40;99.90
58582;DHT22;44361;51.476;5.700;2023-07-31T11:13:16;19.70;99.90
58582;DHT22;44361;51.476;5.700;2023-07-31T11:15:42;19.80;99.90
58582;DHT22;44361;51.476;5.700;2023-07-31T11:18:08;19.80;99.90
58582;DHT22;44361;51.476;5.700;2023-07-31T11:20:36;20.00;99.90
58582;DHT22;44361;51.476;5.700;2023-07-31T11:23:05;20.10;99.90
58582;DHT22;44361;51.476;5.700;2023-07-31T11:25:31;20.50;99.90
58582;DHT22;44361;51.476;5.700;2023-07-31T11:28:05;20.50;99.90
58582;DHT22;44361;51.476;5.700;2023-07-31T11:30:31;20.10;99.90
58582;DHT22;44361;51.476;5.700;2023-07-31T11:32:57;20.00;99.90
58582;DHT22;44361;51.476;5.700;2023-07-31T11:35:22;19.80;99.90
58582;DHT22;44361;51.476;5.700;2023-07-31T11:37:48;19.70;99.90
58582;DHT22;44361;51.476;5.700;2023-07-31T11:40:14;19.70;99.90
58582;DHT22;44361;51.476;5.700;2023-07-31T11:42:40;19.80;99.90
58582;DHT22;44361;51.476;5.700;2023-07-31T11:45:07;20.10;99.90
58582;DHT22;44361;51.476;5.700;2023-07-31T11:47:34;20.40;99.90
58582;DHT22;44361;51.476;5.700;2023-07-31T11:50:01;20.40;99.90
58582;DHT22;44361;51.476;5.700;2023-07-31T11:52:30;20.50;99.90
58582;DHT22;44361;51.476;5.700;2023-07-31T11:54:57;20.60;99.90
58582;DHT22;44361;51.476;5.700;2023-07-31T11:57:23;20.80;99.90
58582;DHT22;44361;51.476;5.700;2023-07-31T11:59:49;20.50;99.90
58582;DHT22;44361;51.476;5.700;2023-07-31T12:02:16;20.30;99.90
58582;DHT22;44361;51.476;5.700;2023-07-31T12:04:43;20.30;99.90
58582;DHT22;44361;51.476;5.700;2023-07-31T12:07:08;20.10;99.90
58582;DHT22;44361;51.476;5.700;2023-07-31T12:09:34;19.90;99.90
58582;DHT22;44361;51.476;5.700;2023-07-31T12:12:00;19.80;99.90
58582;DHT22;44361;51.476;5.700;2023-07-31T12:14:27;19.60;99.90
58582;DHT22;44361;51.476;5.700;2023-07-31T12:16:58;19.60;99.90
58582;DHT22;44361;51.476;5.700;2023-07-31T12:19:25;19.40;99.90
58582;DHT22;44361;51.476;5.700;2023-07-31T12:21:55;19.30;99.90
58582;DHT22;44361;51.476;5.700;2023-07-31T12:24:21;19.10;99.90
58582;DHT22;44361;51.476;5.700;2023-07-31T12:26:48;19.00;99.90
58582;DHT22;44361;51.476;5.700;2023-07-31T12:29:22;19.00;99.90
58582;DHT22;44361;51.476;5.700;2023-07-31T12:31:47;19.00;99.90
58582;DHT22;44361;51.476;5.700;2023-07-31T12:34:17;19.10;99.90
58582;DHT22;44361;51.476;5.700;2023-07-31T12:36:43;19.10;99.90
58582;DHT22;44361;51.476;5.700;2023-07-31T12:39:09;19.10;99.90
58582;DHT22;44361;51.476;5.700;2023-07-31T12:41:34;19.10;99.90
58582;DHT22;44361;51.476;5.700;2023-07-31T12:44:00;19.10;99.90
58582;DHT22;44361;51.476;5.700;2023-07-31T12:46:25;19.10;99.90
58582;DHT22;44361;51.476;5.700;2023-07-31T12:48:51;19.10;99.90
58582;DHT22;44361;51.476;5.700;2023-07-31T12:51:16;19.10;99.90
58582;DHT22;44361;51.476;5.700;2023-07-31T12:53:42;19.10;99.90
58582;DHT22;44361;51.476;5.700;2023-07-31T12:56:08;19.20;99.90
58582;DHT22;44361;51.476;5.700;2023-07-31T12:58:34;19.20;99.90
58582;DHT22;44361;51.476;5.700;2023-07-31T13:00:59;19.20;99.90
58582;DHT22;44361;51.476;5.700;2023-07-31T13:03:25;19.20;99.90
58582;DHT22;44361;51.476;5.700;2023-07-31T13:05:51;19.40;99.90
58582;DHT22;44361;51.476;5.700;2023-07-31T13:08:17;19.50;99.90
58582;DHT22;44361;51.476;5.700;2023-07-31T13:10:43;19.60;99.90
58582;DHT22;44361;51.476;5.700;2023-07-31T13:13:09;19.60;99.90
58582;DHT22;44361;51.476;5.700;2023-07-31T13:15:35;19.40;99.90
58582;DHT22;44361;51.476;5.700;2023-07-31T13:18:01;19.50;99.90
58582;DHT22;44361;51.476;5.700;2023-07-31T13:20:26;19.60;99.90
58582;DHT22;44361;51.476;5.700;2023-07-31T13:22:52;19.80;99.90
58582;DHT22;44361;51.476;5.700;2023-07-31T13:25:18;19.80;99.90
58582;DHT22;44361;51.476;5.700;2023-07-31T13:27:43;19.80;99.90
58582;DHT22;44361;51.476;5.700;2023-07-31T13:30:09;19.80;99.90
58582;DHT22;44361;51.476;5.700;2023-07-31T13:32:34;19.90;99.90
58582;DHT22;44361;51.476;5.700;2023-07-31T13:35:07;20.00;99.90
58582;DHT22;44361;51.476;5.700;2023-07-31T13:37:33;20.00;99.90
58582;DHT22;44361;51.476;5.700;2023-07-31T13:39:59;20.10;99.90
58582;DHT22;44361;51.476;5.700;2023-07-31T13:42:25;20.10;99.90
58582;DHT22;44361;51.476;5.700;2023-07-31T13:44:52;20.10;99.90
58582;DHT22;44361;51.476;5.700;2023-07-31T13:47:17;20.10;99.90
58582;DHT22;44361;51.476;5.700;2023-07-31T13:49:43;20.20;99.90
58582;DHT22;44361;51.476;5.700;2023-07-31T13:52:08;20.20;99.90
58582;DHT22;44361;51.476;5.700;2023-07-31T13:54:34;20.20;99.90
58582;DHT22;44361;51.476;5.700;2023-07-31T13:57:00;20.10;99.90
58582;DHT22;44361;51.476;5.700;2023-07-31T13:59:25;19.80;99.90
58582;DHT22;44361;51.476;5.700;2023-07-31T14:01:51;19.80;99.90
58582;DHT22;44361;51.476;5.700;2023-07-31T14:04:16;19.70;99.90
58582;DHT22;44361;51.476;5.700;2023-07-31T14:06:43;19.70;99.90
58582;DHT22;44361;51.476;5.700;2023-07-31T14:09:09;19.50;99.90
58582;DHT22;44361;51.476;5.700;2023-07-31T14:11:34;19.30;99.90
58582;DHT22;44361;51.476;5.700;2023-07-31T14:14:00;19.10;99.90
58582;DHT22;44361;51.476;5.700;2023-07-31T14:16:27;18.80;99.90
58582;DHT22;44361;51.476;5.700;2023-07-31T14:18:53;18.70;99.90
58582;DHT22;44361;51.476;5.700;2023-07-31T14:21:19;18.70;99.90
58582;DHT22;44361;51.476;5.700;2023-07-31T14:23:45;18.60;99.90
58582;DHT22;44361;51.476;5.700;2023-07-31T14:26:11;18.50;99.90
58582;DHT22;44361;51.476;5.700;2023-07-31T14:28:36;18.40;99.90
58582;DHT22;44361;51.476;5.700;2023-07-31T14:31:02;18.30;99.90
58582;DHT22;44361;51.476;5.700;2023-07-31T14:33:28;18.20;99.90
58582;DHT22;44361;51.476;5.700;2023-07-31T14:35:53;18.20;99.90
58582;DHT22;44361;51.476;5.700;2023-07-31T14:38:19;18.30;99.90
58582;DHT22;44361;51.476;5.700;2023-07-31T14:40:45;18.40;99.90
58582;DHT22;44361;51.476;5.700;2023-07-31T14:43:10;18.40;99.90
58582;DHT22;44361;51.476;5.700;2023-07-31T14:45:36;18.60;99.90
58582;DHT22;44361;51.476;5.700;2023-07-31T14:48:01;18.60;99.90
58582;DHT22;44361;51.476;5.700;2023-07-31T14:50:28;18.60;99.90
58582;DHT22;44361;51.476;5.700;2023-07-31T14:52:53;18.60;99.90
58582;DHT22;44361;51.476;5.700;2023-07-31T14:55:19;18.60;99.90
58582;DHT22;44361;51.476;5.700;2023-07-31T14:57:45;18.60;99.90
58582;DHT22;44361;51.476;5.700;2023-07-31T15:00:11;18.60;99.90
58582;DHT22;44361;51.476;5.700;2023-07-31T15:02:37;18.60;99.90
58582;DHT22;44361;51.476;5.700;2023-07-31T15:05:03;18.60;99.90
58582;DHT22;44361;51.476;5.700;2023-07-31T15:07:29;18.40;99.90
58582;DHT22;44361;51.476;5.700;2023-07-31T15:09:54;18.40;99.90
58582;DHT22;44361;51.476;5.700;2023-07-31T15:12:20;18.40;99.90
58582;DHT22;44361;51.476;5.700;2023-07-31T15:14:45;18.30;99.90
58582;DHT22;44361;51.476;5.700;2023-07-31T15:17:11;18.40;99.90
58582;DHT22;44361;51.476;5.700;2023-07-31T15:19:36;18.40;99.90
58582;DHT22;44361;51.476;5.700;2023-07-31T15:22:03;18.40;99.90
58582;DHT22;44361;51.476;5.700;2023-07-31T15:24:29;18.40;99.90
58582;DHT22;44361;51.476;5.700;2023-07-31T15:26:54;18.40;99.90
58582;DHT22;44361;51.476;5.700;2023-07-31T15:29:20;18.30;99.90
58582;DHT22;44361;51.476;5.700;2023-07-31T15:31:46;18.30;99.90
58582;DHT22;44361;51.476;5.700;2023-07-31T15:34:13;18.20;99.90
58582;DHT22;44361;51.476;5.700;2023-07-31T15:36:39;18.20;99.90
58582;DHT22;44361;51.476;5.700;2023-07-31T15:39:04;18.20;99.90
58582;DHT22;44361;51.476;5.700;2023-07-31T15:41:30;18.20;99.90
58582;DHT22;44361;51.476;5.700;2023-07-31T15:43:56;18.10;99.90